sensor_id;sensor_type;location;lat;lon;timestamp;P1;durP1;ratioP1;P2;durP2;ratioP2
76540;SDS011;65385;55.772;37.658;2023-06-10T00:00:47;4.25;;;3.15;;
76540;SDS011;65385;55.772;37.658;2023-06-10T00:01:49;6.47;;;3.00;;
76540;SDS011;65385;55.772;37.658;2023-06-10T00:02:49;5.25;;;3.58;;
76540;SDS011;65385;55.772;37.658;2023-06-10T00:03:50;9.30;;;3.53;;
76540;SDS011;65385;55.772;37.658;2023-06-10T00:04:52;6.45;;;3.25;;
76540;SDS011;65385;55.772;37.658;2023-06-10T00:05:52;6.82;;;3.88;;
76540;SDS011;65385;55.772;37.658;2023-06-10T00:06:53;5.28;;;2.88;;
76540;SDS011;65385;55.772;37.658;2023-06-10T00:07:54;6.40;;;3.15;;
76540;SDS011;65385;55.772;37.658;2023-06-10T00:08:55;4.75;;;3.00;;
76540;SDS011;65385;55.772;37.658;2023-06-10T00:09:56;5.90;;;3.78;;
76540;SDS011;65385;55.772;37.658;2023-06-10T00:10:57;5.65;;;3.28;;
76540;SDS011;65385;55.772;37.658;2023-06-10T00:11:58;6.55;;;3.80;;
76540;SDS011;65385;55.772;37.658;2023-06-10T00:13:01;5.85;;;3.28;;
76540;SDS011;65385;55.772;37.658;2023-06-10T00:14:04;4.85;;;2.90;;
76540;SDS011;65385;55.772;37.658;2023-06-10T00:15:05;4.70;;;3.03;;
76540;SDS011;65385;55.772;37.658;2023-06-10T00:16:06;5.30;;;3.40;;
76540;SDS011;65385;55.772;37.658;2023-06-10T00:17:07;5.95;;;2.80;;
76540;SDS011;65385;55.772;37.658;2023-06-10T00:18:09;3.47;;;2.70;;
76540;SDS011;65385;55.772;37.658;2023-06-10T00:19:10;7.05;;;3.95;;
76540;SDS011;65385;55.772;37.658;2023-06-10T00:20:14;4.35;;;3.35;;
76540;SDS011;65385;55.772;37.658;2023-06-10T00:21:14;5.18;;;3.85;;
76540;SDS011;65385;55.772;37.658;2023-06-10T00:22:15;6.63;;;3.50;;
76540;SDS011;65385;55.772;37.658;2023-06-10T00:23:16;3.53;;;3.20;;
76540;SDS011;65385;55.772;37.658;2023-06-10T00:24:17;7.43;;;3.65;;
76540;SDS011;65385;55.772;37.658;2023-06-10T00:25:18;5.38;;;3.67;;
76540;SDS011;65385;55.772;37.658;2023-06-10T00:26:19;4.95;;;3.00;;
76540;SDS011;65385;55.772;37.658;2023-06-10T00:27:20;4.47;;;2.97;;
76540;SDS011;65385;55.772;37.658;2023-06-10T00:28:21;4.45;;;3.00;;
76540;SDS011;65385;55.772;37.658;2023-06-10T00:29:22;4.85;;;3.35;;
76540;SDS011;65385;55.772;37.658;2023-06-10T00:30:23;4.00;;;2.85;;
76540;SDS011;65385;55.772;37.658;2023-06-10T00:31:24;4.07;;;3.22;;
76540;SDS011;65385;55.772;37.658;2023-06-10T00:32:26;4.38;;;3.15;;
76540;SDS011;65385;55.772;37.658;2023-06-10T00:33:27;5.57;;;3.55;;
76540;SDS011;65385;55.772;37.658;2023-06-10T00:34:28;5.53;;;4.18;;
76540;SDS011;65385;55.772;37.658;2023-06-10T00:35:28;5.60;;;3.65;;
76540;SDS011;65385;55.772;37.658;2023-06-10T00:36:29;5.30;;;3.08;;
76540;SDS011;65385;55.772;37.658;2023-06-10T00:37:30;5.82;;;3.20;;
76540;SDS011;65385;55.772;37.658;2023-06-10T00:38:32;5.28;;;3.10;;
76540;SDS011;65385;55.772;37.658;2023-06-10T00:39:33;7.22;;;4.45;;
76540;SDS011;65385;55.772;37.658;2023-06-10T00:40:38;6.72;;;3.55;;
76540;SDS011;65385;55.772;37.658;2023-06-10T00:41:41;4.57;;;3.33;;
76540;SDS011;65385;55.772;37.658;2023-06-10T00:42:41;3.58;;;2.85;;
76540;SDS011;65385;55.772;37.658;2023-06-10T00:43:42;5.07;;;3.15;;
76540;SDS011;65385;55.772;37.658;2023-06-10T00:44:42;9.88;;;3.90;;
76540;SDS011;65385;55.772;37.658;2023-06-10T00:45:44;3.65;;;3.08;;
76540;SDS011;65385;55.772;37.658;2023-06-10T00:46:45;4.80;;;3.20;;
76540;SDS011;65385;55.772;37.658;2023-06-10T00:47:46;6.78;;;3.50;;
76540;SDS011;65385;55.772;37.658;2023-06-10T00:48:46;4.13;;;2.53;;
76540;SDS011;65385;55.772;37.658;2023-06-10T00:49:47;6.03;;;3.38;;
76540;SDS011;65385;55.772;37.658;2023-06-10T00:50:49;4.80;;;3.28;;
76540;SDS011;65385;55.772;37.658;2023-06-10T00:51:50;4.90;;;2.90;;
76540;SDS011;65385;55.772;37.658;2023-06-10T00:52:53;9.27;;;3.05;;
76540;SDS011;65385;55.772;37.658;2023-06-10T00:53:54;6.80;;;3.75;;
76540;SDS011;65385;55.772;37.658;2023-06-10T00:54:55;4.82;;;3.17;;
76540;SDS011;65385;55.772;37.658;2023-06-10T00:55:56;5.35;;;3.38;;
76540;SDS011;65385;55.772;37.658;2023-06-10T00:57:00;5.90;;;3.33;;
76540;SDS011;65385;55.772;37.658;2023-06-10T00:58:02;4.30;;;3.38;;
76540;SDS011;65385;55.772;37.658;2023-06-10T00:59:04;7.75;;;3.38;;
76540;SDS011;65385;55.772;37.658;2023-06-10T01:00:05;7.32;;;3.25;;
76540;SDS011;65385;55.772;37.658;2023-06-10T01:01:08;4.57;;;2.50;;
76540;SDS011;65385;55.772;37.658;2023-06-10T01:02:11;5.05;;;3.30;;
76540;SDS011;65385;55.772;37.658;2023-06-10T01:03:12;4.70;;;3.35;;
76540;SDS011;65385;55.772;37.658;2023-06-10T01:04:13;3.42;;;3.13;;
76540;SDS011;65385;55.772;37.658;2023-06-10T01:05:14;4.32;;;2.85;;
76540;SDS011;65385;55.772;37.658;2023-06-10T01:06:24;4.53;;;3.10;;
76540;SDS011;65385;55.772;37.658;2023-06-10T01:08:19;5.03;;;2.63;;
76540;SDS011;65385;55.772;37.658;2023-06-10T01:11:17;6.80;;;3.58;;
76540;SDS011;65385;55.772;37.658;2023-06-10T01:12:33;5.57;;;3.38;;
76540;SDS011;65385;55.772;37.658;2023-06-10T01:13:40;4.72;;;3.70;;
76540;SDS011;65385;55.772;37.658;2023-06-10T01:14:42;4.47;;;2.92;;
76540;SDS011;65385;55.772;37.658;2023-06-10T01:15:44;5.93;;;3.42;;
76540;SDS011;65385;55.772;37.658;2023-06-10T01:16:47;3.90;;;2.90;;
76540;SDS011;65385;55.772;37.658;2023-06-10T01:17:58;4.53;;;3.38;;
76540;SDS011;65385;55.772;37.658;2023-06-10T01:19:04;6.13;;;3.30;;
76540;SDS011;65385;55.772;37.658;2023-06-10T01:20:06;4.75;;;2.75;;
76540;SDS011;65385;55.772;37.658;2023-06-10T01:21:21;4.93;;;2.80;;
76540;SDS011;65385;55.772;37.658;2023-06-10T01:22:27;5.03;;;3.08;;
76540;SDS011;65385;55.772;37.658;2023-06-10T01:23:36;4.28;;;2.97;;
76540;SDS011;65385;55.772;37.658;2023-06-10T01:24:37;4.15;;;3.15;;
76540;SDS011;65385;55.772;37.658;2023-06-10T01:25:58;5.40;;;2.80;;
76540;SDS011;65385;55.772;37.658;2023-06-10T01:27:04;6.03;;;2.47;;
76540;SDS011;65385;55.772;37.658;2023-06-10T01:28:11;4.57;;;3.10;;
76540;SDS011;65385;55.772;37.658;2023-06-10T01:29:15;5.05;;;3.28;;
76540;SDS011;65385;55.772;37.658;2023-06-10T01:30:27;5.13;;;2.97;;
76540;SDS011;65385;55.772;37.658;2023-06-10T01:32:37;3.40;;;2.70;;
76540;SDS011;65385;55.772;37.658;2023-06-10T01:33:45;5.95;;;3.40;;
76540;SDS011;65385;55.772;37.658;2023-06-10T01:35:49;3.15;;;2.60;;
76540;SDS011;65385;55.772;37.658;2023-06-10T01:36:51;7.50;;;3.13;;
76540;SDS011;65385;55.772;37.658;2023-06-10T01:37:54;9.23;;;2.97;;
76540;SDS011;65385;55.772;37.658;2023-06-10T01:38:59;4.88;;;3.00;;
76540;SDS011;65385;55.772;37.658;2023-06-10T01:40:01;6.13;;;3.30;;
76540;SDS011;65385;55.772;37.658;2023-06-10T01:41:06;4.03;;;3.47;;
76540;SDS011;65385;55.772;37.658;2023-06-10T01:42:08;3.90;;;2.92;;
76540;SDS011;65385;55.772;37.658;2023-06-10T01:43:11;4.68;;;2.88;;
76540;SDS011;65385;55.772;37.658;2023-06-10T01:44:13;6.05;;;3.15;;
76540;SDS011;65385;55.772;37.658;2023-06-10T01:45:18;5.20;;;3.13;;
76540;SDS011;65385;55.772;37.658;2023-06-10T01:46:20;8.30;;;3.33;;
76540;SDS011;65385;55.772;37.658;2023-06-10T01:47:22;4.50;;;2.78;;
76540;SDS011;65385;55.772;37.658;2023-06-10T01:48:23;5.28;;;3.30;;
76540;SDS011;65385;55.772;37.658;2023-06-10T01:49:23;6.72;;;3.28;;
76540;SDS011;65385;55.772;37.658;2023-06-10T01:50:25;4.22;;;2.85;;
76540;SDS011;65385;55.772;37.658;2023-06-10T01:51:26;4.88;;;3.10;;
76540;SDS011;65385;55.772;37.658;2023-06-10T01:52:27;6.00;;;3.40;;
76540;SDS011;65385;55.772;37.658;2023-06-10T01:53:28;4.53;;;3.33;;
76540;SDS011;65385;55.772;37.658;2023-06-10T01:54:29;6.53;;;3.40;;
76540;SDS011;65385;55.772;37.658;2023-06-10T01:55:29;4.57;;;2.97;;
76540;SDS011;65385;55.772;37.658;2023-06-10T01:56:30;4.38;;;3.08;;
76540;SDS011;65385;55.772;37.658;2023-06-10T01:57:31;5.75;;;3.58;;
76540;SDS011;65385;55.772;37.658;2023-06-10T01:58:31;6.50;;;3.30;;
76540;SDS011;65385;55.772;37.658;2023-06-10T01:59:32;4.18;;;3.00;;
76540;SDS011;65385;55.772;37.658;2023-06-10T02:00:33;6.10;;;3.38;;
76540;SDS011;65385;55.772;37.658;2023-06-10T02:01:35;5.25;;;3.10;;
76540;SDS011;65385;55.772;37.658;2023-06-10T02:02:36;3.72;;;2.88;;
76540;SDS011;65385;55.772;37.658;2023-06-10T02:03:37;7.03;;;3.47;;
76540;SDS011;65385;55.772;37.658;2023-06-10T02:04:37;6.75;;;3.60;;
76540;SDS011;65385;55.772;37.658;2023-06-10T02:05:38;5.85;;;3.75;;
76540;SDS011;65385;55.772;37.658;2023-06-10T02:06:39;4.85;;;3.42;;
76540;SDS011;65385;55.772;37.658;2023-06-10T02:07:40;6.57;;;3.15;;
76540;SDS011;65385;55.772;37.658;2023-06-10T02:08:41;4.55;;;2.83;;
76540;SDS011;65385;55.772;37.658;2023-06-10T02:09:42;5.88;;;3.40;;
76540;SDS011;65385;55.772;37.658;2023-06-10T02:10:42;8.60;;;3.17;;
76540;SDS011;65385;55.772;37.658;2023-06-10T02:11:45;4.70;;;3.15;;
76540;SDS011;65385;55.772;37.658;2023-06-10T02:12:46;5.05;;;3.40;;
76540;SDS011;65385;55.772;37.658;2023-06-10T02:13:47;4.03;;;2.97;;
76540;SDS011;65385;55.772;37.658;2023-06-10T02:14:47;3.63;;;2.85;;
76540;SDS011;65385;55.772;37.658;2023-06-10T02:15:48;3.58;;;2.72;;
76540;SDS011;65385;55.772;37.658;2023-06-10T02:16:49;5.63;;;2.55;;
76540;SDS011;65385;55.772;37.658;2023-06-10T02:17:52;6.25;;;2.88;;
76540;SDS011;65385;55.772;37.658;2023-06-10T02:18:52;4.38;;;2.70;;
76540;SDS011;65385;55.772;37.658;2023-06-10T02:19:53;4.82;;;3.03;;
76540;SDS011;65385;55.772;37.658;2023-06-10T02:20:55;3.60;;;3.08;;
76540;SDS011;65385;55.772;37.658;2023-06-10T02:21:57;3.88;;;2.90;;
76540;SDS011;65385;55.772;37.658;2023-06-10T02:22:58;5.03;;;3.13;;
76540;SDS011;65385;55.772;37.658;2023-06-10T02:23:59;5.38;;;3.17;;
76540;SDS011;65385;55.772;37.658;2023-06-10T02:25:01;6.15;;;2.85;;
76540;SDS011;65385;55.772;37.658;2023-06-10T02:26:05;4.43;;;2.95;;
76540;SDS011;65385;55.772;37.658;2023-06-10T02:27:06;6.72;;;3.25;;
76540;SDS011;65385;55.772;37.658;2023-06-10T02:28:07;4.75;;;2.78;;
76540;SDS011;65385;55.772;37.658;2023-06-10T02:29:08;5.18;;;3.05;;
76540;SDS011;65385;55.772;37.658;2023-06-10T02:30:09;4.10;;;3.00;;
76540;SDS011;65385;55.772;37.658;2023-06-10T02:31:10;7.05;;;3.10;;
76540;SDS011;65385;55.772;37.658;2023-06-10T02:32:12;6.47;;;3.00;;
76540;SDS011;65385;55.772;37.658;2023-06-10T02:33:14;5.55;;;2.97;;
76540;SDS011;65385;55.772;37.658;2023-06-10T02:34:15;2.95;;;2.65;;
76540;SDS011;65385;55.772;37.658;2023-06-10T02:35:16;5.05;;;3.05;;
76540;SDS011;65385;55.772;37.658;2023-06-10T02:36:18;5.30;;;2.50;;
76540;SDS011;65385;55.772;37.658;2023-06-10T02:37:18;3.63;;;2.65;;
76540;SDS011;65385;55.772;37.658;2023-06-10T02:38:19;5.47;;;2.85;;
76540;SDS011;65385;55.772;37.658;2023-06-10T02:39:21;6.05;;;2.50;;
76540;SDS011;65385;55.772;37.658;2023-06-10T02:40:23;3.92;;;2.40;;
76540;SDS011;65385;55.772;37.658;2023-06-10T02:41:23;4.10;;;2.80;;
76540;SDS011;65385;55.772;37.658;2023-06-10T02:42:26;3.13;;;2.70;;
76540;SDS011;65385;55.772;37.658;2023-06-10T02:43:27;4.13;;;2.80;;
76540;SDS011;65385;55.772;37.658;2023-06-10T02:44:29;5.72;;;2.97;;
76540;SDS011;65385;55.772;37.658;2023-06-10T02:45:29;6.47;;;2.60;;
76540;SDS011;65385;55.772;37.658;2023-06-10T02:46:32;6.75;;;2.88;;
76540;SDS011;65385;55.772;37.658;2023-06-10T02:47:33;6.20;;;2.90;;
76540;SDS011;65385;55.772;37.658;2023-06-10T02:48:40;5.00;;;2.80;;
76540;SDS011;65385;55.772;37.658;2023-06-10T02:49:43;7.90;;;2.72;;
76540;SDS011;65385;55.772;37.658;2023-06-10T02:50:44;5.47;;;2.83;;
76540;SDS011;65385;55.772;37.658;2023-06-10T02:51:57;4.03;;;2.50;;
76540;SDS011;65385;55.772;37.658;2023-06-10T02:52:59;4.43;;;2.97;;
76540;SDS011;65385;55.772;37.658;2023-06-10T02:54:00;6.22;;;2.67;;
76540;SDS011;65385;55.772;37.658;2023-06-10T02:55:00;7.05;;;2.75;;
76540;SDS011;65385;55.772;37.658;2023-06-10T02:56:02;4.57;;;2.97;;
76540;SDS011;65385;55.772;37.658;2023-06-10T02:57:03;4.55;;;2.60;;
76540;SDS011;65385;55.772;37.658;2023-06-10T02:58:03;8.07;;;3.20;;
76540;SDS011;65385;55.772;37.658;2023-06-10T02:59:05;5.32;;;2.70;;
76540;SDS011;65385;55.772;37.658;2023-06-10T03:00:07;5.28;;;2.85;;
76540;SDS011;65385;55.772;37.658;2023-06-10T03:01:13;2.78;;;2.10;;
76540;SDS011;65385;55.772;37.658;2023-06-10T03:02:28;3.35;;;2.33;;
76540;SDS011;65385;55.772;37.658;2023-06-10T03:03:30;3.65;;;2.35;;
76540;SDS011;65385;55.772;37.658;2023-06-10T03:04:37;3.90;;;2.72;;
76540;SDS011;65385;55.772;37.658;2023-06-10T03:05:43;2.45;;;2.20;;
76540;SDS011;65385;55.772;37.658;2023-06-10T03:06:44;2.95;;;2.30;;
76540;SDS011;65385;55.772;37.658;2023-06-10T03:07:54;5.25;;;2.35;;
76540;SDS011;65385;55.772;37.658;2023-06-10T03:08:56;3.88;;;2.65;;
76540;SDS011;65385;55.772;37.658;2023-06-10T03:09:57;3.05;;;2.28;;
76540;SDS011;65385;55.772;37.658;2023-06-10T03:10:57;5.07;;;2.30;;
76540;SDS011;65385;55.772;37.658;2023-06-10T03:11:58;3.03;;;2.40;;
76540;SDS011;65385;55.772;37.658;2023-06-10T03:12:59;6.63;;;2.28;;
76540;SDS011;65385;55.772;37.658;2023-06-10T03:14:00;3.92;;;2.60;;
76540;SDS011;65385;55.772;37.658;2023-06-10T03:15:02;2.63;;;2.42;;
76540;SDS011;65385;55.772;37.658;2023-06-10T03:16:05;4.38;;;2.10;;
76540;SDS011;65385;55.772;37.658;2023-06-10T03:17:08;3.80;;;2.17;;
76540;SDS011;65385;55.772;37.658;2023-06-10T03:18:11;3.15;;;2.00;;
76540;SDS011;65385;55.772;37.658;2023-06-10T03:19:12;4.50;;;2.60;;
76540;SDS011;65385;55.772;37.658;2023-06-10T03:20:16;2.92;;;2.10;;
76540;SDS011;65385;55.772;37.658;2023-06-10T03:21:18;2.38;;;2.00;;
76540;SDS011;65385;55.772;37.658;2023-06-10T03:22:20;4.00;;;2.38;;
76540;SDS011;65385;55.772;37.658;2023-06-10T03:23:37;2.38;;;1.90;;
76540;SDS011;65385;55.772;37.658;2023-06-10T03:24:38;3.03;;;2.22;;
76540;SDS011;65385;55.772;37.658;2023-06-10T03:25:41;2.72;;;2.40;;
76540;SDS011;65385;55.772;37.658;2023-06-10T03:26:44;2.60;;;2.38;;
76540;SDS011;65385;55.772;37.658;2023-06-10T03:27:45;4.97;;;2.53;;
76540;SDS011;65385;55.772;37.658;2023-06-10T03:28:47;3.53;;;2.00;;
76540;SDS011;65385;55.772;37.658;2023-06-10T03:29:48;2.50;;;2.05;;
76540;SDS011;65385;55.772;37.658;2023-06-10T03:30:50;5.75;;;2.50;;
76540;SDS011;65385;55.772;37.658;2023-06-10T03:31:52;2.25;;;2.05;;
76540;SDS011;65385;55.772;37.658;2023-06-10T03:32:52;3.70;;;2.22;;
76540;SDS011;65385;55.772;37.658;2023-06-10T03:33:56;2.13;;;1.90;;
76540;SDS011;65385;55.772;37.658;2023-06-10T03:34:56;2.10;;;1.90;;
76540;SDS011;65385;55.772;37.658;2023-06-10T03:35:59;4.22;;;2.22;;
76540;SDS011;65385;55.772;37.658;2023-06-10T03:37:00;2.80;;;2.20;;
76540;SDS011;65385;55.772;37.658;2023-06-10T03:38:01;2.50;;;1.88;;
76540;SDS011;65385;55.772;37.658;2023-06-10T03:39:02;2.03;;;1.92;;
76540;SDS011;65385;55.772;37.658;2023-06-10T03:40:02;3.05;;;1.98;;
76540;SDS011;65385;55.772;37.658;2023-06-10T03:41:06;3.00;;;1.83;;
76540;SDS011;65385;55.772;37.658;2023-06-10T03:42:07;4.00;;;2.30;;
76540;SDS011;65385;55.772;37.658;2023-06-10T03:43:08;2.88;;;1.60;;
76540;SDS011;65385;55.772;37.658;2023-06-10T03:44:09;2.50;;;2.30;;
76540;SDS011;65385;55.772;37.658;2023-06-10T03:45:10;2.83;;;2.22;;
76540;SDS011;65385;55.772;37.658;2023-06-10T03:46:11;2.95;;;2.00;;
76540;SDS011;65385;55.772;37.658;2023-06-10T03:47:13;2.20;;;2.00;;
76540;SDS011;65385;55.772;37.658;2023-06-10T03:48:14;3.70;;;1.90;;
76540;SDS011;65385;55.772;37.658;2023-06-10T03:49:20;2.63;;;2.33;;
76540;SDS011;65385;55.772;37.658;2023-06-10T03:50:21;3.17;;;1.88;;
76540;SDS011;65385;55.772;37.658;2023-06-10T03:51:23;2.67;;;1.98;;
76540;SDS011;65385;55.772;37.658;2023-06-10T03:52:24;2.20;;;2.03;;
76540;SDS011;65385;55.772;37.658;2023-06-10T03:53:25;4.53;;;2.00;;
76540;SDS011;65385;55.772;37.658;2023-06-10T03:54:26;2.53;;;1.92;;
76540;SDS011;65385;55.772;37.658;2023-06-10T03:55:26;3.08;;;2.10;;
76540;SDS011;65385;55.772;37.658;2023-06-10T03:56:28;3.10;;;2.00;;
76540;SDS011;65385;55.772;37.658;2023-06-10T03:57:29;3.33;;;2.30;;
76540;SDS011;65385;55.772;37.658;2023-06-10T03:58:30;2.20;;;1.77;;
76540;SDS011;65385;55.772;37.658;2023-06-10T03:59:30;1.85;;;1.60;;
76540;SDS011;65385;55.772;37.658;2023-06-10T04:00:31;5.28;;;2.40;;
76540;SDS011;65385;55.772;37.658;2023-06-10T04:01:41;3.63;;;1.70;;
76540;SDS011;65385;55.772;37.658;2023-06-10T04:02:44;2.10;;;1.70;;
76540;SDS011;65385;55.772;37.658;2023-06-10T04:03:58;3.55;;;2.10;;
76540;SDS011;65385;55.772;37.658;2023-06-10T04:04:58;2.40;;;2.05;;
76540;SDS011;65385;55.772;37.658;2023-06-10T04:05:59;4.38;;;2.30;;
76540;SDS011;65385;55.772;37.658;2023-06-10T04:07:00;3.45;;;1.95;;
76540;SDS011;65385;55.772;37.658;2023-06-10T04:08:01;4.13;;;1.98;;
76540;SDS011;65385;55.772;37.658;2023-06-10T04:09:02;3.53;;;2.40;;
76540;SDS011;65385;55.772;37.658;2023-06-10T04:10:03;2.47;;;2.00;;
76540;SDS011;65385;55.772;37.658;2023-06-10T04:11:05;2.05;;;1.85;;
76540;SDS011;65385;55.772;37.658;2023-06-10T04:12:06;7.10;;;2.08;;
76540;SDS011;65385;55.772;37.658;2023-06-10T04:13:09;2.33;;;2.00;;
76540;SDS011;65385;55.772;37.658;2023-06-10T04:14:15;3.78;;;2.10;;
76540;SDS011;65385;55.772;37.658;2023-06-10T04:15:17;2.40;;;2.20;;
76540;SDS011;65385;55.772;37.658;2023-06-10T04:16:18;4.97;;;2.40;;
76540;SDS011;65385;55.772;37.658;2023-06-10T04:17:20;4.25;;;2.50;;
76540;SDS011;65385;55.772;37.658;2023-06-10T04:18:20;3.60;;;2.10;;
76540;SDS011;65385;55.772;37.658;2023-06-10T04:19:22;3.60;;;1.77;;
76540;SDS011;65385;55.772;37.658;2023-06-10T04:20:24;4.30;;;2.10;;
76540;SDS011;65385;55.772;37.658;2023-06-10T04:21:25;2.95;;;2.22;;
76540;SDS011;65385;55.772;37.658;2023-06-10T04:22:25;3.28;;;2.20;;
76540;SDS011;65385;55.772;37.658;2023-06-10T04:23:26;2.13;;;1.98;;
76540;SDS011;65385;55.772;37.658;2023-06-10T04:24:27;2.92;;;1.95;;
76540;SDS011;65385;55.772;37.658;2023-06-10T04:25:29;3.90;;;2.13;;
76540;SDS011;65385;55.772;37.658;2023-06-10T04:26:29;3.92;;;2.40;;
76540;SDS011;65385;55.772;37.658;2023-06-10T04:27:30;2.47;;;2.08;;
76540;SDS011;65385;55.772;37.658;2023-06-10T04:28:31;1.73;;;1.63;;
76540;SDS011;65385;55.772;37.658;2023-06-10T04:29:32;3.28;;;1.83;;
76540;SDS011;65385;55.772;37.658;2023-06-10T04:30:33;1.98;;;1.77;;
76540;SDS011;65385;55.772;37.658;2023-06-10T04:31:35;2.17;;;1.83;;
76540;SDS011;65385;55.772;37.658;2023-06-10T04:32:35;3.08;;;2.33;;
76540;SDS011;65385;55.772;37.658;2023-06-10T04:33:36;4.35;;;2.35;;
76540;SDS011;65385;55.772;37.658;2023-06-10T04:34:38;3.63;;;2.20;;
76540;SDS011;65385;55.772;37.658;2023-06-10T04:35:39;3.53;;;2.13;;
76540;SDS011;65385;55.772;37.658;2023-06-10T04:36:42;2.35;;;2.03;;
76540;SDS011;65385;55.772;37.658;2023-06-10T04:37:43;3.53;;;1.73;;
76540;SDS011;65385;55.772;37.658;2023-06-10T04:38:44;3.17;;;2.03;;
76540;SDS011;65385;55.772;37.658;2023-06-10T04:39:45;2.05;;;1.75;;
76540;SDS011;65385;55.772;37.658;2023-06-10T04:40:46;1.83;;;1.73;;
76540;SDS011;65385;55.772;37.658;2023-06-10T04:41:48;1.88;;;1.63;;
76540;SDS011;65385;55.772;37.658;2023-06-10T04:42:49;3.35;;;1.98;;
76540;SDS011;65385;55.772;37.658;2023-06-10T04:43:49;2.50;;;1.90;;
76540;SDS011;65385;55.772;37.658;2023-06-10T04:44:50;4.90;;;1.73;;
76540;SDS011;65385;55.772;37.658;2023-06-10T04:45:51;3.50;;;1.90;;
76540;SDS011;65385;55.772;37.658;2023-06-10T04:46:52;3.03;;;1.80;;
76540;SDS011;65385;55.772;37.658;2023-06-10T04:47:52;3.22;;;1.90;;
76540;SDS011;65385;55.772;37.658;2023-06-10T04:48:55;5.22;;;2.10;;
76540;SDS011;65385;55.772;37.658;2023-06-10T04:49:56;2.50;;;2.10;;
76540;SDS011;65385;55.772;37.658;2023-06-10T04:50:57;2.20;;;1.88;;
76540;SDS011;65385;55.772;37.658;2023-06-10T04:51:59;3.00;;;2.28;;
76540;SDS011;65385;55.772;37.658;2023-06-10T04:53:00;2.70;;;2.00;;
76540;SDS011;65385;55.772;37.658;2023-06-10T04:54:01;3.30;;;2.10;;
76540;SDS011;65385;55.772;37.658;2023-06-10T04:55:04;3.70;;;2.10;;
76540;SDS011;65385;55.772;37.658;2023-06-10T04:56:05;3.90;;;2.10;;
76540;SDS011;65385;55.772;37.658;2023-06-10T04:57:08;4.60;;;1.88;;
76540;SDS011;65385;55.772;37.658;2023-06-10T04:58:08;2.40;;;2.13;;
76540;SDS011;65385;55.772;37.658;2023-06-10T04:59:09;2.85;;;2.20;;
76540;SDS011;65385;55.772;37.658;2023-06-10T05:00:09;2.92;;;2.10;;
76540;SDS011;65385;55.772;37.658;2023-06-10T05:01:11;4.90;;;2.30;;
76540;SDS011;65385;55.772;37.658;2023-06-10T05:02:11;3.17;;;1.90;;
76540;SDS011;65385;55.772;37.658;2023-06-10T05:03:12;3.45;;;2.05;;
76540;SDS011;65385;55.772;37.658;2023-06-10T05:04:12;3.28;;;1.98;;
76540;SDS011;65385;55.772;37.658;2023-06-10T05:05:13;4.80;;;2.10;;
76540;SDS011;65385;55.772;37.658;2023-06-10T05:06:14;2.67;;;2.10;;
76540;SDS011;65385;55.772;37.658;2023-06-10T05:07:14;2.78;;;2.17;;
76540;SDS011;65385;55.772;37.658;2023-06-10T05:08:15;1.90;;;1.70;;
76540;SDS011;65385;55.772;37.658;2023-06-10T05:09:16;3.72;;;1.80;;
76540;SDS011;65385;55.772;37.658;2023-06-10T05:10:17;2.05;;;1.70;;
76540;SDS011;65385;55.772;37.658;2023-06-10T05:11:17;3.58;;;2.05;;
76540;SDS011;65385;55.772;37.658;2023-06-10T05:12:18;2.33;;;2.10;;
76540;SDS011;65385;55.772;37.658;2023-06-10T05:13:18;2.22;;;2.00;;
76540;SDS011;65385;55.772;37.658;2023-06-10T05:14:19;2.65;;;1.83;;
76540;SDS011;65385;55.772;37.658;2023-06-10T05:15:21;2.67;;;1.92;;
76540;SDS011;65385;55.772;37.658;2023-06-10T05:16:22;5.43;;;2.13;;
76540;SDS011;65385;55.772;37.658;2023-06-10T05:17:22;3.83;;;1.90;;
76540;SDS011;65385;55.772;37.658;2023-06-10T05:18:23;3.67;;;2.20;;
76540;SDS011;65385;55.772;37.658;2023-06-10T05:19:24;2.90;;;1.92;;
76540;SDS011;65385;55.772;37.658;2023-06-10T05:20:25;3.78;;;2.13;;
76540;SDS011;65385;55.772;37.658;2023-06-10T05:21:26;3.70;;;2.40;;
76540;SDS011;65385;55.772;37.658;2023-06-10T05:22:26;3.80;;;2.08;;
76540;SDS011;65385;55.772;37.658;2023-06-10T05:23:27;2.42;;;1.73;;
76540;SDS011;65385;55.772;37.658;2023-06-10T05:24:28;4.75;;;1.90;;
76540;SDS011;65385;55.772;37.658;2023-06-10T05:25:32;3.22;;;1.90;;
76540;SDS011;65385;55.772;37.658;2023-06-10T05:26:32;1.80;;;1.70;;
76540;SDS011;65385;55.772;37.658;2023-06-10T05:28:38;4.30;;;2.13;;
76540;SDS011;65385;55.772;37.658;2023-06-10T05:29:39;1.70;;;1.50;;
76540;SDS011;65385;55.772;37.658;2023-06-10T05:30:40;2.20;;;2.00;;
76540;SDS011;65385;55.772;37.658;2023-06-10T05:31:41;2.70;;;1.77;;
76540;SDS011;65385;55.772;37.658;2023-06-10T05:32:42;2.28;;;1.77;;
76540;SDS011;65385;55.772;37.658;2023-06-10T05:33:43;4.88;;;1.92;;
76540;SDS011;65385;55.772;37.658;2023-06-10T05:34:43;3.47;;;1.90;;
76540;SDS011;65385;55.772;37.658;2023-06-10T05:35:44;4.70;;;2.05;;
76540;SDS011;65385;55.772;37.658;2023-06-10T05:36:45;2.28;;;1.55;;
76540;SDS011;65385;55.772;37.658;2023-06-10T05:37:46;4.45;;;1.77;;
76540;SDS011;65385;55.772;37.658;2023-06-10T05:38:46;1.95;;;1.80;;
76540;SDS011;65385;55.772;37.658;2023-06-10T05:39:47;2.45;;;1.75;;
76540;SDS011;65385;55.772;37.658;2023-06-10T05:40:47;2.95;;;2.08;;
76540;SDS011;65385;55.772;37.658;2023-06-10T05:41:48;3.30;;;1.95;;
76540;SDS011;65385;55.772;37.658;2023-06-10T05:42:49;2.40;;;1.90;;
76540;SDS011;65385;55.772;37.658;2023-06-10T05:43:49;4.30;;;1.90;;
76540;SDS011;65385;55.772;37.658;2023-06-10T05:44:50;2.17;;;1.75;;
76540;SDS011;65385;55.772;37.658;2023-06-10T05:45:51;2.65;;;1.70;;
76540;SDS011;65385;55.772;37.658;2023-06-10T05:46:51;3.78;;;1.75;;
76540;SDS011;65385;55.772;37.658;2023-06-10T05:47:52;4.38;;;2.00;;
76540;SDS011;65385;55.772;37.658;2023-06-10T05:48:52;3.38;;;1.98;;
76540;SDS011;65385;55.772;37.658;2023-06-10T05:49:53;2.03;;;1.80;;
76540;SDS011;65385;55.772;37.658;2023-06-10T05:50:53;5.10;;;2.10;;
76540;SDS011;65385;55.772;37.658;2023-06-10T05:51:54;3.08;;;1.80;;
76540;SDS011;65385;55.772;37.658;2023-06-10T05:52:56;4.30;;;1.92;;
76540;SDS011;65385;55.772;37.658;2023-06-10T05:53:57;2.58;;;1.70;;
76540;SDS011;65385;55.772;37.658;2023-06-10T05:54:58;1.90;;;1.63;;
76540;SDS011;65385;55.772;37.658;2023-06-10T05:55:59;4.10;;;1.80;;
76540;SDS011;65385;55.772;37.658;2023-06-10T05:57:00;3.72;;;1.70;;
76540;SDS011;65385;55.772;37.658;2023-06-10T05:58:01;3.20;;;1.75;;
76540;SDS011;65385;55.772;37.658;2023-06-10T05:59:01;2.75;;;1.80;;
76540;SDS011;65385;55.772;37.658;2023-06-10T06:00:02;2.13;;;1.67;;
76540;SDS011;65385;55.772;37.658;2023-06-10T06:01:12;3.80;;;1.90;;
76540;SDS011;65385;55.772;37.658;2023-06-10T06:02:13;1.70;;;1.60;;
76540;SDS011;65385;55.772;37.658;2023-06-10T06:03:14;2.35;;;1.65;;
76540;SDS011;65385;55.772;37.658;2023-06-10T06:04:15;4.20;;;1.88;;
76540;SDS011;65385;55.772;37.658;2023-06-10T06:05:15;5.25;;;1.65;;
76540;SDS011;65385;55.772;37.658;2023-06-10T06:06:16;2.03;;;1.60;;
76540;SDS011;65385;55.772;37.658;2023-06-10T06:07:17;3.10;;;1.67;;
76540;SDS011;65385;55.772;37.658;2023-06-10T06:08:18;2.95;;;1.58;;
76540;SDS011;65385;55.772;37.658;2023-06-10T06:09:18;4.15;;;1.70;;
76540;SDS011;65385;55.772;37.658;2023-06-10T06:10:19;3.65;;;1.60;;
76540;SDS011;65385;55.772;37.658;2023-06-10T06:11:20;1.58;;;1.52;;
76540;SDS011;65385;55.772;37.658;2023-06-10T06:12:21;3.03;;;1.80;;
76540;SDS011;65385;55.772;37.658;2023-06-10T06:13:21;3.30;;;1.80;;